San Bernardino, CA (92401)

9:44 AM PDT on September 30, 2014 (GMT -0700)
North San Bernardino | Change Station
CLOSE
Current Station
Personal Weather Station
Location: San Bernardino, CA
Elevation: 1278 ft
Nearby Weather Stations

Elev 1278 ft 34.16 °N, 117.29 °W | Updated 11 seconds ago

Clear
Clear
76.3 °F
Feels Like 77 °F
N
0.0
Wind Variable Wind from North
Gusts 0.0 mph

Today
High -- | Low -- °F
--% Chance of Precip.
Yesterday
High -- | Low -- °F
Precip. -- in
6:43 AM 6:34 PM
Waxing Crescent, 38% visible
Pressure 29.90 in
Visibility 10.0 miles
Clouds Clear
Heat Index 77 °F
Dew Point 43 °F
Humidity 31%
Rainfall 0.00 in
Snow Depth 1 in , 0 in , 0 in
UV 2 out of 12
Pollen 5.30 out of 12
Ozone Good
PM2.5 Moderate
Flu Activity Not available.
METAR KSBD 301547Z 00000KT 10SM SKC 20/05 A2990

More Conditions Fewer Conditions

Pressure 29.90 in
Visibility 10.0 miles
Clouds Clear
Heat Index 77 °F
Dew Point 43 °F
Humidity 31%
Rainfall 0.00 in
Snow Depth 1 in , 0 in , 0 in
UV 2 out of 12
Pollen 5.30 out of 12
Ozone Good
PM2.5 Moderate
Flu Activity Not available.
METAR KSBD 301547Z 00000KT 10SM SKC 20/05 A2990

More Conditions Fewer Conditions

10-Day Weather Forecast

Almanac

Astronomy

Sep. 30, 2014 Rise Set
Actual Time 6:43 AM PDT 6:34 PM PDT
Civil Twilight 6:18 AM PDT 6:59 PM PDT
Nautical Twilight 5:48 AM PDT 7:28 PM PDT
Astronomical Twilight 5:19 AM PDT 7:57 PM PDT
Moon 12:43 PM PDT 11:21 PM PDT
Length of Visible Light 12h 41m
Length of Day
11h 51m
Tomorrow will be 2m 7s shorter.
Waxing Crescent, 38% of the Moon is Illuminated
Today
Waxing Crescent
Oct 1
First Quarter
Oct 8
Full
Oct 15
Last Quarter
Oct 23
New

Today's Extremes

State Highs State Lows

Community

WunderPhotos

Upload Photos

1,757,682 photos uploaded!

Nearby

Air Quality

  Air Quality AQ Index Pollutant
Yesterday Good
PM10
Yesterday Good
OZONE
Current Moderate
PM2.5
Current Good
OZONE
Tuesday Good
PM10
Tuesday Good
OZONE
Tuesday Good
CO
Tuesday Good
NO2

Snow Depth

Station Depth Elevation
Spratt Creek 1 in 6200 ft
Adin Mountain 0 in 6200 ft
Horse Meadow 0 in 8631 ft
Truckee #2 0 in 6400 ft
Sonora Pass 0 in 8800 ft

Earthquake Activity

City Distance Mag. Time & Date
No recent earthquake activity has been reported nearby.
Minimum magnitude displayed is 2.5.

Coastal Water Temperatures

Place Temperature
No Stations Reporting

Nearby Weather Stations